AirNav   Everest Fuels
 
 1657 users online  

08NJ St Barnabas Medical Center Heliport
Livingston, New Jersey, USA

GOING TO LIVINGSTON?


FAA INFORMATION EFFECTIVE 30 JANUARY 2020

Location

FAA Identifier: 08NJ
Lat/Long: 40-45-45.3620N 074-18-14.5340W
40-45.756033N 074-18.242233W
40.7626006,-74.3040372
(estimated)
Elevation: 429 ft. / 130.8 m (surveyed)
Variation: 12W (1985)
Time zone: UTC -5 (UTC -4 during Daylight Saving Time)
Zip code: 07039

Heliport Operations

Heliport use: Private use, MEDICAL USE.
Activation date: 05/1989
Control tower: no
ARTCC: NEW YORK CENTER
FSS: MILLVILLE FLIGHT SERVICE STATION
Attendance: CONTINUOUS
Wind indicator: lighted
Segmented circle: no

Heliport Communications

WX AWOS-3 at MMU (5 nm NW): PHONE 973-290-0135
WX ASOS at CDW (7 nm N): 135.5 (973-575-4417)
WX ASOS at EWR (7 nm SE): PHONE 973-621-2892
WX AWOS-3 at LDJ (9 nm S): 124.025 (908-862-7383)
WX ASOS at TEB (12 nm NE): 132.025 (201-393-0855)
WX AWOS-3PT at JRB (14 nm E): 128.175 (212-425-1534)
WX ASOS at SMQ (19 nm SW): 120.6 (908-722-2139)
WX ASOS at LGA (20 nm E): PHONE 718-672-6317

Nearby radio navigation aids

VOR radial/distance  VOR name  Freq  Var
TEBr256/12.1TETERBORO VOR/DME108.4011W
LGAr278/19.8LA GUARDIA VOR/DME113.1012W
CRIr307/20.7CANARSIE VOR/DME112.3011W
SAXr161/21.2SPARTA VORTAC115.7011W
SBJr072/22.6SOLBERG VOR/DME112.9010W
BWZr106/23.6BROADWAY VOR/DME114.2011W
JFKr300/25.4KENNEDY VOR/DME115.9012W
COLr357/27.8COLTS NECK VOR/DME115.4011W
STWr130/29.2STILLWATER VOR/DME109.6011W
RBVr025/34.7ROBBINSVILLE VORTAC113.8010W

 
NDB name  Hdg/Dist  Freq  Var  ID
CHATHAM090/5.925413WCAT -.-. .- -
TORBY264/8.221412WTE - .

Heliport Services

Runway Information

Helipad H1

Dimensions: 90 x 90 ft. / 27 x 27 m
Surface: asphalt
Latitude: 40-45.756033N
Longitude: 074-18.242233W
Elevation: 429.0 ft.
Traffic pattern: leftleft

Heliport Ownership and Management from official FAA records

Ownership: Privately-owned
Owner: ST BARNABAS MEDICAL CENTER
94 OLD SHORT HILLS RD
LIVINGSTON, NJ 07039
Phone 973-322-5000
Manager: MICHAEL MITCHELL, DIRECTOR
94 OLD SHORT HILLS RD
LIVINGSTON, NJ 07039
Phone 973-322-2617

Additional Remarks

FOR CD CTC NEW YORK APCH AT 800-645-3206.

Instrument Procedures

There are no published instrument procedures at 08NJ.

Some nearby airports with instrument procedures:

KMMU - Morristown Municipal Airport (5 nm NW)
KCDW - Essex County Airport (7 nm N)
KEWR - Newark Liberty International Airport (7 nm SE)
KLDJ - Linden Airport (9 nm S)
N07 - Lincoln Park Airport (11 nm N)
KTEB - Teterboro Airport (12 nm NE)
KJRA - West 30th St Heliport (14 nm E)
KJRB - Downtown Manhattan/Wall Street Heliport (14 nm E)
6N5 - East 34th Street Heliport (15 nm E)
KSMQ - Somerset Airport (19 nm SW)
 
Loc | Ops | Rwys | IFR | FBO | Links
Com | Nav | Svcs | Stats | Notes
Area around 08NJ (St Barnabas Medical Center Heliport)
 
Road maps at: MapQuest Bing Google
 
Aerial photo
No photo
 
Sectional chart

 
Airport distance calculator
Flying to St Barnabas Medical Center Heliport? Find the distance to fly.

From to 08NJ

Sunrise and sunset
Times for 26-Feb-2020
 Local
(UTC-5)
 Zulu
(UTC)
Morning civil twilight06:0911:09
Sunrise06:3711:37
Sunset17:4422:44
Evening civil twilight18:1123:11

Current date and time
Zulu (UTC)  26-Feb-2020 17:47:16
Local (UTC-5)  26-Feb-2020 12:47:16
 
METAR
KMMU 
5nm W 
261725Z 09004KT 2 1/4SM BR OVC005 08/08 A2992
KCDW 
7nm N 
261653Z 08006KT 4SM BR OVC006 09/08 A2995 RMK AO2 SLP148 T00890078
KEWR 
8nm SE 
261651Z 09007KT 2SM -DZ BR BKN006 OVC015 09/08 A2995 RMK AO2 SFC VIS 4 SLP140 CIG 004V008 P0000 T00890078
KLDJ 
9nm S 
261735Z AUTO 13009KT 10SM OVC007 08/07 A2993 RMK AO2 T00840070
KTEB 
13nm NE 
261724Z 07007KT 4SM DZ BR OVC005 08/07 A2992 RMK AO2 P0000 T00830067
KJRB 
14nm E 
261738Z AUTO 04008KT 2 1/2SM BR OVC006 08/07 A2993 RMK AO2 VIS 2V3
KNYC 
15nm E 
261651Z AUTO 05006KT 9SM OVC008 08/07 A2998 RMK AO2 RAB02E11 CIG 007V012 SLP143 P0000 T00830067 $
KSMQ 
19nm SW 
ASOS 120.60 908-722-2139
261653Z AUTO 7SM OVC012 09/08 A2992 RMK AO2 SLP132 T00940078
KLGA 
19nm E 
261740Z 06010KT 2 1/2SM BR OVC005 07/06 A2992 RMK AO2 RAE38 P0000 T00720056
TAF
KEWR 
8nm SE 
261611Z 2616/2718 09005KT 3SM -DZ BR OVC005 TEMPO 2616/2618 2SM -DZ BR OVC004 FM261800 07007KT 3SM BR SCT008 OVC012 FM270300 07012KT 3SM SHRA BR OVC012 FM270600 10013KT 1 1/2SM SHRA BR OVC008 FM270800 21013G22KT 2SM SHRA BR OVC008 FM271000 25016KT P6SM VCSH BKN035 FM271500 26018G27KT P6SM SCT120
KTEB 
13nm NE 
261143Z 2612/2718 06004KT 5SM BR OVC006 FM261700 09004KT 6SM BR BKN008 FM261900 09006KT P6SM SCT008 BKN012 FM262300 08007KT P6SM VCSH OVC010 FM270200 09006KT 5SM SHRA BR OVC010 FM270800 13011KT 1 1/2SM SHRA BR OVC010 FM271000 19010KT 4SM SHRA BR BKN026 FM271200 20012KT P6SM VCSH BKN040 FM271500 27016G24KT P6SM SCT120
KLGA 
19nm E 
261611Z 2616/2718 04009KT 2SM -DZ BR OVC009 TEMPO 2616/2618 1SM -DZ BR OVC005 FM261800 06009KT P6SM OVC015 FM262300 09010KT 5SM BR OVC015 FM270300 09014KT 3SM SHRA BR OVC012 FM270800 19014G22KT 1 1/2SM SHRA BR OVC009 FM271000 24017KT 6SM BR VCSH BKN035 FM271500 26018G26KT P6SM SCT120
NOTAMs
Click for the latest NOTAMs
NOTAMs are issued by the DoD/FAA and will open in a separate window not controlled by AirNav.

 

 
 

Would you like to see your business listed on this page?

 If your business provides an interesting product or service to pilots, flight crews, aircraft, or users of the St Barnabas Medical Center Heliport, you should consider listing it here.  To start the listing process, click on the button below
 
Add a business
 

Other Pages about St Barnabas Medical Center Heliport

Update a link
 
Copyright © AirNav, LLC. All rights reserved. Privacy Policy  Contact